Terminal Aerodrome Forecast
Issued by NWS Albany, NY

Home | Current Version | Previous Version | Text Only | Print | Product List | Glossary On
Versions: 1 2 3 4 5 6 7 8 9 10 11 12 13
000
FTUS41 KALY 120500
TAFGFL
TAF
KGFL 120539Z 1206/1306 00000KT P6SM SKC
      TEMPO 1207/1211 2SM BR VV002
     FM121100 18003KT P6SM SCT250
     FM121500 18007KT P6SM SCT080 BKN250
     FM130200 18003KT P6SM SCT060 SCT250
     FM130500 00000KT 3SM BR SCT250=

USA.gov is the U.S. government's official web portal to all federal, state and local government web resources and services.